createdAt,value
2022-12-22T00:02:45.126Z,9.40
2022-12-22T00:05:33.106Z,9.50
2022-12-22T00:08:18.879Z,9.50
2022-12-22T00:11:05.174Z,9.50
2022-12-22T00:13:51.776Z,9.50
2022-12-22T00:16:38.937Z,9.40
2022-12-22T00:19:31.768Z,9.40
2022-12-22T00:22:20.450Z,9.40
2022-12-22T00:25:05.922Z,9.40
2022-12-22T00:27:51.548Z,9.40
2022-12-22T00:30:37.101Z,9.40
2022-12-22T00:33:24.817Z,9.30
2022-12-22T00:36:10.188Z,9.30
2022-12-22T00:38:55.645Z,9.20
2022-12-22T00:41:41.375Z,9.20
2022-12-22T00:44:26.721Z,9.10
2022-12-22T00:47:12.406Z,9.10
2022-12-22T00:50:02.267Z,9.10
2022-12-22T00:52:48.001Z,9.10
2022-12-22T00:55:36.057Z,9.10
2022-12-22T00:58:22.843Z,9.10
2022-12-22T01:01:08.186Z,9.10
2022-12-22T01:03:54.087Z,9.10
2022-12-22T01:06:41.617Z,9.10
2022-12-22T01:09:29.085Z,9.10
2022-12-22T01:12:14.853Z,9.10
2022-12-22T01:15:00.517Z,9.20
2022-12-22T01:17:45.847Z,9.20
2022-12-22T01:20:31.935Z,9.20
2022-12-22T01:23:18.932Z,9.30
2022-12-22T01:26:04.583Z,9.30
2022-12-22T01:28:50.234Z,9.30
2022-12-22T01:31:39.317Z,9.30
2022-12-22T01:34:24.668Z,9.40
2022-12-22T01:37:10.157Z,9.30
2022-12-22T01:39:57.203Z,9.30
2022-12-22T01:42:43.326Z,9.20
2022-12-22T01:45:39.475Z,9.20
2022-12-22T01:48:30.407Z,9.20
2022-12-22T01:51:18.295Z,9.20
2022-12-22T01:54:03.978Z,9.30
2022-12-22T01:56:51.594Z,9.20
2022-12-22T01:59:37.352Z,9.20
2022-12-22T02:02:25.112Z,9.20
2022-12-22T02:05:12.910Z,9.20
2022-12-22T02:08:17.206Z,9.20
2022-12-22T02:11:29.298Z,9.20
2022-12-22T02:14:31.748Z,9.30
2022-12-22T02:17:25.785Z,9.30
2022-12-22T02:20:33.718Z,9.30
2022-12-22T02:23:34.118Z,9.30
2022-12-22T02:26:32.305Z,9.30
2022-12-22T02:29:18.296Z,9.30
2022-12-22T02:32:03.691Z,9.30
2022-12-22T02:34:49.402Z,9.30
2022-12-22T02:37:43.668Z,9.30
2022-12-22T02:40:41.212Z,9.30
2022-12-22T02:43:39.522Z,9.30
2022-12-22T02:46:33.441Z,9.30
2022-12-22T02:49:23.400Z,9.40
2022-12-22T02:52:15.929Z,9.40
2022-12-22T02:55:03.246Z,9.40
2022-12-22T02:57:48.650Z,9.40
2022-12-22T03:00:35.999Z,9.40
2022-12-22T03:03:21.870Z,9.40
2022-12-22T03:06:07.330Z,9.40
2022-12-22T03:08:52.675Z,9.40
2022-12-22T03:11:38.129Z,9.40
2022-12-22T03:14:23.856Z,9.50
2022-12-22T03:17:10.975Z,9.50
2022-12-22T03:19:56.267Z,9.40
2022-12-22T03:22:41.959Z,9.40
2022-12-22T03:25:27.964Z,9.40
2022-12-22T03:27:56.053Z,9.40
2022-12-22T03:30:24.325Z,9.30
2022-12-22T03:32:53.845Z,9.30
2022-12-22T03:35:21.938Z,9.30
2022-12-22T03:37:50.357Z,9.30
2022-12-22T03:40:18.534Z,9.30
2022-12-22T03:43:04.267Z,9.30
2022-12-22T03:45:48.896Z,9.30
2022-12-22T03:48:18.335Z,9.30
2022-12-22T03:50:46.415Z,9.30
2022-12-22T03:53:14.521Z,9.30
2022-12-22T03:55:42.683Z,9.40
2022-12-22T03:58:10.777Z,9.40
2022-12-22T04:00:38.873Z,9.50
2022-12-22T04:03:07.368Z,9.50
2022-12-22T04:05:36.985Z,9.50
2022-12-22T04:08:05.379Z,9.50
2022-12-22T04:10:51.145Z,9.60
2022-12-22T04:13:19.191Z,9.50
2022-12-22T04:15:47.247Z,9.60
2022-12-22T04:18:15.489Z,9.60
2022-12-22T04:20:44.926Z,9.60
2022-12-22T04:23:12.994Z,9.60
2022-12-22T04:25:41.064Z,9.60
2022-12-22T04:28:09.148Z,9.60
2022-12-22T04:30:37.256Z,9.60
2022-12-22T04:33:05.504Z,9.70
2022-12-22T04:35:33.584Z,9.70
2022-12-22T04:38:03.071Z,9.70
2022-12-22T04:40:31.169Z,9.80
2022-12-22T04:42:59.293Z,9.80
2022-12-22T04:45:27.441Z,9.80
2022-12-22T04:47:55.546Z,9.90
2022-12-22T04:50:23.668Z,9.80
2022-12-22T04:52:51.770Z,9.70
2022-12-22T04:55:21.303Z,9.70
2022-12-22T04:57:49.693Z,9.80
2022-12-22T05:00:18.615Z,9.70
2022-12-22T05:02:47.048Z,9.70
2022-12-22T05:05:15.222Z,9.70
2022-12-22T05:07:44.211Z,9.70
2022-12-22T05:10:13.773Z,9.70
2022-12-22T05:12:58.487Z,9.70
2022-12-22T05:15:28.808Z,9.70
2022-12-22T05:17:57.149Z,9.80
2022-12-22T05:20:25.643Z,9.80
2022-12-22T05:22:53.687Z,9.80
2022-12-22T05:25:22.550Z,9.80
2022-12-22T05:27:52.529Z,9.80
2022-12-22T05:30:21.833Z,9.80
2022-12-22T05:32:50.098Z,9.80
2022-12-22T05:35:18.422Z,9.80
2022-12-22T05:37:46.519Z,9.80
2022-12-22T05:40:16.036Z,9.80
2022-12-22T05:42:44.343Z,9.70
2022-12-22T05:45:16.000Z,9.70
2022-12-22T05:47:45.319Z,9.70
2022-12-22T05:50:14.828Z,9.80
2022-12-22T05:52:45.012Z,9.80
2022-12-22T05:55:14.517Z,9.80
2022-12-22T05:57:43.482Z,9.80
2022-12-22T06:00:16.600Z,9.70
2022-12-22T06:02:45.761Z,9.70
2022-12-22T06:05:16.139Z,9.70
2022-12-22T06:07:45.201Z,9.70
2022-12-22T06:10:15.283Z,9.80
2022-12-22T06:12:44.260Z,9.80
2022-12-22T06:15:15.967Z,9.90
2022-12-22T06:17:45.294Z,9.90
2022-12-22T06:20:14.423Z,10.00
2022-12-22T06:22:42.480Z,10.00
2022-12-22T06:25:17.522Z,10.20
2022-12-22T06:27:49.124Z,10.20
2022-12-22T06:30:18.723Z,10.20
2022-12-22T06:32:46.912Z,10.10
2022-12-22T06:35:15.169Z,10.10
2022-12-22T06:37:43.230Z,10.10
2022-12-22T06:40:12.180Z,10.10
2022-12-22T06:43:03.990Z,10.10
2022-12-22T06:45:38.216Z,10.10
2022-12-22T06:48:06.535Z,10.00
2022-12-22T06:50:34.986Z,10.00
2022-12-22T06:53:03.105Z,10.00
2022-12-22T06:55:31.272Z,10.00
2022-12-22T06:57:59.459Z,10.10
2022-12-22T07:00:27.642Z,10.10
2022-12-22T07:02:57.390Z,10.10
2022-12-22T07:05:25.850Z,10.10
2022-12-22T07:07:54.328Z,10.10
2022-12-22T07:10:42.803Z,10.10
2022-12-22T07:13:20.392Z,10.10
2022-12-22T07:15:55.653Z,10.10
2022-12-22T07:18:29.264Z,10.10
2022-12-22T07:20:57.392Z,10.10
2022-12-22T07:23:25.955Z,10.10
2022-12-22T07:25:54.158Z,10.20
2022-12-22T07:28:22.320Z,10.20
2022-12-22T07:30:50.600Z,10.20
2022-12-22T07:33:19.276Z,10.20
2022-12-22T07:35:48.707Z,10.20
2022-12-22T07:38:16.841Z,10.20
2022-12-22T07:40:49.275Z,10.20
2022-12-22T07:43:18.973Z,10.20
2022-12-22T07:45:47.364Z,10.20
2022-12-22T07:48:29.377Z,10.20
2022-12-22T07:51:04.377Z,10.20
2022-12-22T07:53:33.790Z,10.10
2022-12-22T07:56:04.544Z,10.00
2022-12-22T07:58:32.747Z,9.90
2022-12-22T08:01:01.573Z,9.80
2022-12-22T08:03:29.860Z,9.80
2022-12-22T08:05:59.422Z,9.80
2022-12-22T08:08:27.564Z,9.80
2022-12-22T08:10:55.737Z,9.90
2022-12-22T08:13:23.834Z,10.00
2022-12-22T08:15:52.043Z,10.00
2022-12-22T08:18:20.817Z,10.10
2022-12-22T08:20:50.983Z,10.20
2022-12-22T08:23:20.491Z,10.30
2022-12-22T08:25:53.312Z,10.30
2022-12-22T08:28:21.519Z,10.30
2022-12-22T08:30:50.172Z,10.40
2022-12-22T08:33:18.432Z,10.40
2022-12-22T08:35:46.750Z,10.40
2022-12-22T08:38:15.853Z,10.40
2022-12-22T08:40:46.626Z,10.40
2022-12-22T08:43:15.313Z,10.50
2022-12-22T08:45:43.821Z,10.50
2022-12-22T08:48:12.283Z,10.50
2022-12-22T08:50:40.473Z,10.60
2022-12-22T08:53:23.681Z,10.60
2022-12-22T08:55:59.772Z,10.70
2022-12-22T08:58:27.884Z,10.70
2022-12-22T09:00:56.046Z,10.70
2022-12-22T09:03:24.310Z,10.60
2022-12-22T09:05:52.424Z,10.60
2022-12-22T09:08:20.656Z,10.70
2022-12-22T09:10:48.767Z,10.70
2022-12-22T09:13:18.373Z,10.80
2022-12-22T09:15:46.493Z,10.80
2022-12-22T09:18:14.618Z,10.80
2022-12-22T09:20:42.846Z,10.80
2022-12-22T09:23:11.199Z,10.80
2022-12-22T09:25:39.331Z,10.80
2022-12-22T09:28:08.873Z,10.80
2022-12-22T09:30:38.440Z,10.80
2022-12-22T09:33:06.526Z,10.80
2022-12-22T09:35:34.882Z,10.90
2022-12-22T09:38:02.994Z,10.90
2022-12-22T09:40:33.704Z,10.90
2022-12-22T09:43:02.221Z,10.90
2022-12-22T09:45:33.829Z,10.80
2022-12-22T09:48:03.538Z,10.80
2022-12-22T09:50:34.150Z,10.80
2022-12-22T09:53:04.314Z,10.90
2022-12-22T09:55:40.926Z,10.90
2022-12-22T09:58:23.979Z,10.90
2022-12-22T10:01:04.057Z,11.00
2022-12-22T10:03:42.194Z,11.00
2022-12-22T10:06:14.442Z,11.00
2022-12-22T10:08:43.317Z,11.10
2022-12-22T10:11:16.446Z,11.10
2022-12-22T10:13:45.748Z,11.00
2022-12-22T10:16:22.824Z,11.10
2022-12-22T10:19:02.370Z,11.10
2022-12-22T10:21:30.711Z,11.10
2022-12-22T10:23:59.112Z,11.20
2022-12-22T10:26:31.764Z,11.20
2022-12-22T10:29:04.434Z,11.20
2022-12-22T10:31:35.037Z,11.20
2022-12-22T10:34:15.080Z,11.30
2022-12-22T10:36:48.216Z,11.40
2022-12-22T10:39:22.451Z,11.40
2022-12-22T10:41:53.047Z,11.50
2022-12-22T10:44:24.855Z,11.50
2022-12-22T10:46:55.090Z,11.60
2022-12-22T10:49:27.450Z,11.70
2022-12-22T10:51:56.956Z,11.70
2022-12-22T10:54:27.837Z,11.80
2022-12-22T10:57:26.848Z,11.90
2022-12-22T10:59:56.911Z,11.90
2022-12-22T11:02:33.066Z,12.00
2022-12-22T11:05:09.017Z,12.00
2022-12-22T11:07:38.865Z,12.00
2022-12-22T11:10:18.900Z,12.10
2022-12-22T11:13:03.589Z,12.10
2022-12-22T11:15:40.375Z,12.10
2022-12-22T11:18:19.931Z,12.10
2022-12-22T11:20:58.594Z,12.10
2022-12-22T11:23:34.354Z,12.10
2022-12-22T11:26:15.076Z,12.20
2022-12-22T11:29:13.947Z,12.20
2022-12-22T11:31:57.607Z,12.20
2022-12-22T11:34:40.097Z,12.30
2022-12-22T11:37:22.787Z,12.30
2022-12-22T11:39:59.404Z,12.40
2022-12-22T11:42:46.243Z,12.50
2022-12-22T11:45:39.066Z,12.50
2022-12-22T11:48:27.954Z,12.50
2022-12-22T11:51:10.599Z,12.50
2022-12-22T11:53:59.012Z,12.50
2022-12-22T11:56:32.136Z,12.50
2022-12-22T11:59:16.900Z,12.50
2022-12-22T12:02:02.878Z,12.50
2022-12-22T12:05:00.138Z,12.60
2022-12-22T12:07:32.885Z,12.60
2022-12-22T12:10:14.605Z,12.60
2022-12-22T12:12:50.705Z,12.60
2022-12-22T12:15:28.295Z,12.50
2022-12-22T12:18:16.651Z,12.60
2022-12-22T12:20:57.404Z,12.60
2022-12-22T12:23:43.235Z,12.50
2022-12-22T12:26:18.770Z,12.60
2022-12-22T12:29:02.133Z,12.60
2022-12-22T12:31:34.767Z,12.60
2022-12-22T12:34:04.069Z,12.60
2022-12-22T12:36:40.791Z,12.60
2022-12-22T12:39:17.042Z,12.60
2022-12-22T12:41:54.840Z,12.60
2022-12-22T12:44:32.823Z,12.50
2022-12-22T12:47:22.400Z,12.50
2022-12-22T12:50:05.539Z,12.50
2022-12-22T12:53:13.371Z,12.50
2022-12-22T12:56:00.148Z,12.50
2022-12-22T12:58:58.485Z,12.50
2022-12-22T13:02:01.089Z,12.60
2022-12-22T13:05:06.358Z,12.60
2022-12-22T13:08:15.567Z,12.60
2022-12-22T13:10:50.555Z,12.60
2022-12-22T13:13:53.383Z,12.50
2022-12-22T13:16:29.380Z,12.50
2022-12-22T13:19:00.161Z,12.50
2022-12-22T13:21:55.227Z,12.50
2022-12-22T13:24:29.023Z,12.50
2022-12-22T13:27:03.320Z,12.50
2022-12-22T13:29:41.523Z,12.50
2022-12-22T13:32:22.156Z,12.50
2022-12-22T13:35:29.676Z,12.50
2022-12-22T13:37:48.606Z,12.50
2022-12-22T13:40:23.035Z,12.50
2022-12-22T13:42:54.312Z,12.50
2022-12-22T13:45:33.897Z,12.50
2022-12-22T13:48:10.520Z,12.50
2022-12-22T13:50:42.629Z,12.50
2022-12-22T13:53:34.316Z,12.50
2022-12-22T13:56:06.216Z,12.50
2022-12-22T13:58:38.037Z,12.40
2022-12-22T14:01:17.271Z,12.40
2022-12-22T14:04:01.529Z,12.40
2022-12-22T14:06:33.046Z,12.40
2022-12-22T14:09:16.071Z,12.40
2022-12-22T14:11:51.652Z,12.40
2022-12-22T14:14:25.000Z,12.30
2022-12-22T14:16:55.389Z,12.30
2022-12-22T14:19:26.800Z,12.40
2022-12-22T14:22:04.697Z,12.40
2022-12-22T14:24:38.643Z,12.40
2022-12-22T14:27:13.405Z,12.30
2022-12-22T14:29:41.864Z,12.30
2022-12-22T14:32:30.760Z,12.30
2022-12-22T14:35:00.465Z,12.30
2022-12-22T14:37:32.908Z,12.30
2022-12-22T14:40:01.505Z,12.30
2022-12-22T14:42:35.894Z,12.30
2022-12-22T14:45:04.413Z,12.20
2022-12-22T14:47:37.379Z,12.20
2022-12-22T14:50:19.644Z,12.20
2022-12-22T14:52:50.984Z,12.10
2022-12-22T14:55:29.516Z,12.10
2022-12-22T14:58:01.475Z,12.10
2022-12-22T15:00:33.953Z,12.10
2022-12-22T15:03:04.669Z,12.20
2022-12-22T15:05:37.486Z,12.20
2022-12-22T15:08:33.286Z,12.20
2022-12-22T15:11:04.960Z,12.20
2022-12-22T15:13:33.035Z,12.20
2022-12-22T15:16:01.118Z,12.20
2022-12-22T15:18:29.745Z,12.20
2022-12-22T15:20:59.412Z,12.20
2022-12-22T15:23:27.531Z,12.20
2022-12-22T15:25:55.640Z,12.20
2022-12-22T15:28:23.895Z,12.20
2022-12-22T15:30:52.299Z,12.20
2022-12-22T15:33:20.991Z,12.10
2022-12-22T15:35:49.122Z,12.10
2022-12-22T15:38:21.045Z,12.20
2022-12-22T15:40:49.252Z,12.10
2022-12-22T15:43:54.037Z,12.10
2022-12-22T15:46:07.642Z,12.10
2022-12-22T15:48:39.494Z,12.10
2022-12-22T15:51:15.290Z,12.10
2022-12-22T15:53:45.214Z,12.10
2022-12-22T15:56:19.053Z,12.10
2022-12-22T15:58:47.662Z,12.00
2022-12-22T16:01:15.875Z,12.00
2022-12-22T16:03:44.089Z,11.90
2022-12-22T16:06:14.849Z,11.90
2022-12-22T16:08:48.346Z,11.80
2022-12-22T16:11:17.316Z,11.70
2022-12-22T16:13:46.437Z,11.70
2022-12-22T16:16:14.643Z,11.70
2022-12-22T16:18:43.020Z,11.70
2022-12-22T16:21:16.092Z,11.70
2022-12-22T16:23:47.972Z,11.70
2022-12-22T16:26:18.710Z,11.70
2022-12-22T16:28:47.425Z,11.70
2022-12-22T16:31:20.905Z,11.70
2022-12-22T16:33:49.288Z,11.70
2022-12-22T16:36:17.464Z,11.80
2022-12-22T16:38:47.509Z,11.80
2022-12-22T16:41:25.101Z,11.80
2022-12-22T16:44:00.816Z,11.80
2022-12-22T16:46:38.752Z,11.80
2022-12-22T16:49:09.252Z,11.70
2022-12-22T16:51:40.274Z,11.70
2022-12-22T16:54:14.863Z,11.50
2022-12-22T16:56:43.630Z,11.50
2022-12-22T16:59:11.720Z,11.40
2022-12-22T17:01:43.784Z,11.30
2022-12-22T17:04:16.899Z,11.20
2022-12-22T17:06:47.316Z,11.20
2022-12-22T17:09:20.368Z,11.10
2022-12-22T17:11:49.305Z,11.10
2022-12-22T17:14:24.825Z,11.10
2022-12-22T17:16:53.505Z,11.20
2022-12-22T17:19:21.838Z,11.20
2022-12-22T17:21:51.000Z,11.20
2022-12-22T17:24:27.828Z,11.20
2022-12-22T17:27:06.189Z,11.20
2022-12-22T17:29:36.274Z,11.20
2022-12-22T17:32:04.580Z,11.10
2022-12-22T17:34:33.100Z,11.10
2022-12-22T17:37:01.339Z,11.10
2022-12-22T17:39:32.292Z,11.00
2022-12-22T17:42:00.685Z,10.90
2022-12-22T17:44:29.078Z,10.90
2022-12-22T17:46:57.475Z,10.90
2022-12-22T17:49:25.781Z,10.90
2022-12-22T17:51:53.961Z,10.80
2022-12-22T17:54:24.923Z,10.80
2022-12-22T17:57:00.245Z,10.80
2022-12-22T17:59:28.472Z,10.80
2022-12-22T18:01:56.703Z,10.70
2022-12-22T18:04:24.953Z,10.70
2022-12-22T18:06:53.367Z,10.70
2022-12-22T18:09:24.345Z,10.70
2022-12-22T18:11:54.252Z,10.60
2022-12-22T18:14:23.669Z,10.60
2022-12-22T18:16:52.026Z,10.60
2022-12-22T18:19:20.566Z,10.60
2022-12-22T18:21:49.246Z,10.60
2022-12-22T18:24:18.572Z,10.60
2022-12-22T18:26:47.670Z,10.60
2022-12-22T18:29:17.997Z,10.70
2022-12-22T18:31:46.481Z,10.70
2022-12-22T18:34:14.813Z,10.60
2022-12-22T18:36:45.400Z,10.60
2022-12-22T18:39:18.903Z,10.60
2022-12-22T18:41:47.528Z,10.50
2022-12-22T18:44:19.135Z,10.50
2022-12-22T18:46:48.686Z,10.40
2022-12-22T18:49:17.304Z,10.40
2022-12-22T18:51:46.349Z,10.40
2022-12-22T18:54:23.903Z,10.30
2022-12-22T18:56:52.230Z,10.30
2022-12-22T18:59:28.208Z,10.30
2022-12-22T19:02:03.333Z,10.30
2022-12-22T19:04:31.679Z,10.20
2022-12-22T19:07:00.113Z,10.20
2022-12-22T19:09:28.381Z,10.20
2022-12-22T19:11:56.510Z,10.10
2022-12-22T19:14:26.002Z,10.10
2022-12-22T19:16:55.703Z,10.10
2022-12-22T19:19:24.133Z,10.00
2022-12-22T19:21:53.657Z,10.00
2022-12-22T19:24:21.786Z,10.00
2022-12-22T19:26:49.931Z,10.00
2022-12-22T19:29:18.494Z,10.00
2022-12-22T19:31:48.226Z,9.90
2022-12-22T19:34:20.795Z,9.90
2022-12-22T19:36:49.941Z,9.90
2022-12-22T19:39:18.072Z,9.80
2022-12-22T19:41:48.226Z,9.80
2022-12-22T19:44:22.039Z,9.80
2022-12-22T19:46:52.346Z,9.90
2022-12-22T19:49:22.358Z,10.00
2022-12-22T19:51:50.950Z,10.00
2022-12-22T19:54:20.318Z,9.90
2022-12-22T19:56:52.085Z,9.90
2022-12-22T19:59:29.575Z,9.90
2022-12-22T20:02:01.442Z,9.90
2022-12-22T20:04:29.754Z,9.80
2022-12-22T20:06:57.966Z,9.80
2022-12-22T20:09:26.265Z,9.80
2022-12-22T20:11:54.751Z,9.70
2022-12-22T20:14:22.911Z,9.70
2022-12-22T20:16:51.319Z,9.70
2022-12-22T20:19:20.888Z,9.70
2022-12-22T20:21:51.339Z,9.60
2022-12-22T20:24:23.594Z,9.60
2022-12-22T20:26:54.428Z,9.60
2022-12-22T20:29:24.890Z,9.60
2022-12-22T20:31:53.728Z,9.60
2022-12-22T20:34:23.263Z,9.60
2022-12-22T20:36:51.377Z,9.60
2022-12-22T20:39:20.470Z,9.60
2022-12-22T20:41:53.382Z,9.60
2022-12-22T20:44:22.991Z,9.70
2022-12-22T20:46:51.347Z,9.70
2022-12-22T20:49:19.501Z,9.70
2022-12-22T20:51:49.124Z,9.70
2022-12-22T20:54:17.580Z,9.70
2022-12-22T20:56:46.366Z,9.80
2022-12-22T20:59:17.500Z,9.80
2022-12-22T21:01:46.349Z,9.80
2022-12-22T21:04:15.846Z,9.80
2022-12-22T21:06:47.197Z,9.80
2022-12-22T21:09:17.103Z,9.80
2022-12-22T21:11:45.388Z,9.80
2022-12-22T21:14:14.448Z,9.80
2022-12-22T21:16:43.441Z,9.90
2022-12-22T21:19:18.042Z,9.80
2022-12-22T21:21:46.238Z,9.80
2022-12-22T21:24:16.434Z,9.80
2022-12-22T21:26:48.219Z,9.70
2022-12-22T21:29:19.593Z,9.80
2022-12-22T21:31:47.742Z,9.80
2022-12-22T21:34:17.448Z,9.70
2022-12-22T21:36:48.451Z,9.70
2022-12-22T21:39:24.702Z,9.70
2022-12-22T21:42:01.885Z,9.80
2022-12-22T21:44:31.815Z,9.80
2022-12-22T21:47:00.729Z,9.80
2022-12-22T21:49:30.831Z,9.90
2022-12-22T21:51:59.103Z,9.90
2022-12-22T21:54:28.846Z,9.90
2022-12-22T21:56:57.075Z,9.90
2022-12-22T21:59:25.765Z,9.90
2022-12-22T22:01:54.199Z,9.90
2022-12-22T22:04:23.113Z,9.90
2022-12-22T22:06:51.314Z,9.90
2022-12-22T22:09:19.500Z,9.80
2022-12-22T22:12:06.546Z,9.80
2022-12-22T22:14:34.860Z,9.80
2022-12-22T22:17:03.080Z,9.70
2022-12-22T22:19:31.406Z,9.70
2022-12-22T22:21:59.740Z,9.70
2022-12-22T22:24:27.883Z,9.70
2022-12-22T22:26:57.409Z,9.70
2022-12-22T22:29:25.644Z,9.70
2022-12-22T22:31:53.946Z,9.70
2022-12-22T22:34:22.211Z,9.70
2022-12-22T22:36:51.623Z,9.70
2022-12-22T22:39:19.871Z,9.70
2022-12-22T22:41:48.153Z,9.70
2022-12-22T22:44:17.932Z,9.60
2022-12-22T22:46:46.189Z,9.60
2022-12-22T22:49:14.532Z,9.60
2022-12-22T22:51:42.913Z,9.60
2022-12-22T22:54:13.066Z,9.60
2022-12-22T22:56:41.221Z,9.60
2022-12-22T22:59:12.106Z,9.60
2022-12-22T23:01:42.256Z,9.60
2022-12-22T23:04:10.595Z,9.60
2022-12-22T23:06:41.622Z,9.60
2022-12-22T23:09:10.364Z,9.50
2022-12-22T23:11:38.628Z,9.30
2022-12-22T23:14:07.026Z,9.10
2022-12-22T23:16:38.327Z,9.10
2022-12-22T23:19:08.292Z,9.20
2022-12-22T23:21:36.408Z,9.30
2022-12-22T23:24:04.809Z,9.40
2022-12-22T23:26:32.959Z,9.50
2022-12-22T23:29:03.578Z,9.50
2022-12-22T23:31:32.799Z,9.60
2022-12-22T23:34:01.152Z,9.70
2022-12-22T23:36:30.705Z,9.70
2022-12-22T23:38:59.095Z,9.60
2022-12-22T23:41:27.223Z,9.60
2022-12-22T23:43:55.545Z,9.60
2022-12-22T23:46:24.239Z,9.60
2022-12-22T23:48:53.799Z,9.60
2022-12-22T23:51:23.594Z,9.60
2022-12-22T23:53:53.182Z,9.60
2022-12-22T23:56:21.431Z,9.50
2022-12-22T23:58:54.536Z,9.50
